Time;durP1;ratioP1;P1;durP2;ratioP2;P2;SDS_P1;SDS_P2;PMS_P1;PMS_P2;Temp;Humidity;BMP_temperature;BMP_pressure;BME280_temperature;BME280_humidity;BME280_pressure;Samples;Min_cycle;Max_cycle;Signal;HPM_P1;HPM_P2
2022/11/06 00:01:37;;;;;;;27.17;15.82;;;;;;;;;;4470378;32;20224;-88
2022/11/06 00:04:04;;;;;;;21.77;15.57;;;;;;;;;;4470044;32;20268;-87
2022/11/06 00:06:48;;;;;;;28.55;16.35;;;;;;;;;;4469809;32;20212;-87
2022/11/06 00:09:17;;;;;;;28.95;19.00;;;;;;;;;;4469916;32;20263;-87
2022/11/06 00:11:44;;;;;;;39.65;20.35;;;;;;;;;;4469875;32;20196;-87
2022/11/06 00:14:14;;;;;;;29.50;17.90;;;;;;;;;;4469812;32;20205;-87
2022/11/06 00:16:42;;;;;;;36.10;21.25;;;;;;;;;;4469814;32;20244;-88
2022/11/06 00:19:09;;;;;;;37.13;22.65;;;;;;;;;;4469996;32;20241;-86
2022/11/06 00:21:38;;;;;;;35.10;20.12;;;;;;;;;;4469436;32;20276;-87
2022/11/06 00:24:07;;;;;;;35.40;21.95;;;;;;;;;;4469934;32;20302;-87
2022/11/06 00:26:37;;;;;;;38.63;20.65;;;;;;;;;;4469582;32;20199;-87
2022/11/06 00:29:05;;;;;;;37.00;21.37;;;;;;;;;;4469884;32;20196;-87
2022/11/06 00:31:34;;;;;;;34.17;19.57;;;;;;;;;;4469457;32;20660;-87
2022/11/06 00:34:02;;;;;;;38.33;20.23;;;;;;;;;;4469492;32;20286;-87
2022/11/06 00:36:30;;;;;;;42.30;18.90;;;;;;;;;;4469488;32;20241;-87
2022/11/06 00:39:01;;;;;;;35.25;20.08;;;;;;;;;;4469772;32;20208;-86
2022/11/06 00:41:30;;;;;;;31.70;18.20;;;;;;;;;;4469472;32;20307;-87
2022/11/06 00:43:59;;;;;;;36.55;19.62;;;;;;;;;;4469219;32;20212;-86
2022/11/06 00:46:26;;;;;;;30.20;18.60;;;;;;;;;;4469188;32;20258;-87
2022/11/06 00:48:54;;;;;;;31.27;18.48;;;;;;;;;;4469593;32;20257;-87
2022/11/06 00:51:23;;;;;;;42.67;20.37;;;;;;;;;;4469128;32;20288;-87
2022/11/06 00:53:54;;;;;;;30.92;20.37;;;;;;;;;;4469496;32;20203;-87
2022/11/06 00:56:23;;;;;;;33.40;17.23;;;;;;;;;;4469151;32;20315;-87
2022/11/06 00:58:50;;;;;;;34.53;17.23;;;;;;;;;;4469700;32;20204;-86
2022/11/06 01:01:19;;;;;;;24.08;15.90;;;;;;;;;;4469117;32;20238;-87
2022/11/06 01:03:48;;;;;;;27.00;16.17;;;;;;;;;;4469596;32;20287;-87
2022/11/06 01:06:17;;;;;;;25.12;16.65;;;;;;;;;;4468931;32;20219;-88
2022/11/06 01:08:45;;;;;;;36.38;17.85;;;;;;;;;;4469164;32;20574;-87
2022/11/06 01:11:17;;;;;;;38.90;18.42;;;;;;;;;;4470960;32;20215;-87
2022/11/06 01:13:46;;;;;;;33.15;18.20;;;;;;;;;;4478257;32;20214;-86
2022/11/06 01:16:14;;;;;;;28.40;17.73;;;;;;;;;;4479128;32;20216;-86
2022/11/06 01:18:43;;;;;;;29.00;17.70;;;;;;;;;;4472306;32;20200;-87
2022/11/06 01:21:12;;;;;;;31.05;18.58;;;;;;;;;;4470265;32;20740;-87
2022/11/06 01:23:41;;;;;;;31.43;19.53;;;;;;;;;;4468924;32;20257;-87
2022/11/06 01:26:10;;;;;;;37.35;19.45;;;;;;;;;;4469094;32;20232;-87
2022/11/06 01:28:38;;;;;;;30.42;21.23;;;;;;;;;;4468840;32;20196;-85
2022/11/06 01:31:08;;;;;;;34.13;22.47;;;;;;;;;;4468639;32;20752;-88
2022/11/06 01:33:35;;;;;;;34.97;21.02;;;;;;;;;;4472473;32;20177;-87
2022/11/06 01:36:02;;;;;;;42.13;21.33;;;;;;;;;;4486080;32;20206;-87
2022/11/06 01:38:28;;;;;;;40.10;21.00;;;;;;;;;;4485246;32;20303;-88
2022/11/06 01:40:55;;;;;;;35.70;21.60;;;;;;;;;;4485085;32;20225;-87
2022/11/06 01:43:26;;;;;;;34.47;21.17;;;;;;;;;;4473720;32;20260;-88
2022/11/06 01:45:59;;;;;;;36.43;21.20;;;;;;;;;;4471440;32;20242;-88
2022/11/06 01:48:28;;;;;;;33.75;19.40;;;;;;;;;;4474076;32;20215;-89
2022/11/06 01:50:58;;;;;;;30.02;18.42;;;;;;;;;;4473918;32;20228;-86
2022/11/06 01:53:26;;;;;;;33.77;18.33;;;;;;;;;;4469886;32;20196;-88
2022/11/06 01:55:57;;;;;;;33.33;17.23;;;;;;;;;;4468698;32;20196;-85
2022/11/06 01:58:27;;;;;;;29.13;17.87;;;;;;;;;;4468859;32;20200;-87
2022/11/06 02:00:54;;;;;;;35.10;18.70;;;;;;;;;;4468292;32;20216;-87
2022/11/06 02:03:44;;;;;;;31.27;19.53;;;;;;;;;;4468951;32;20209;-87
2022/11/06 02:06:13;;;;;;;28.60;17.10;;;;;;;;;;4468417;32;20292;-87
2022/11/06 02:08:39;;;;;;;28.73;17.63;;;;;;;;;;4468689;32;20200;-87
2022/11/06 02:11:06;;;;;;;36.80;20.83;;;;;;;;;;4468563;32;20346;-87
2022/11/06 02:13:55;;;;;;;34.50;19.10;;;;;;;;;;4467383;32;20212;-87
2022/11/06 02:16:27;;;;;;;42.83;21.43;;;;;;;;;;4468514;32;20258;-87
2022/11/06 02:19:08;;;;;;;48.28;24.63;;;;;;;;;;4468460;32;20234;-87
2022/11/06 02:22:03;;;;;;;50.25;26.85;;;;;;;;;;4468171;32;20236;-87
2022/11/06 02:24:54;;;;;;;34.05;23.62;;;;;;;;;;4466517;32;20224;-87
2022/11/06 02:27:24;;;;;;;42.60;26.03;;;;;;;;;;4468072;32;20223;-87
2022/11/06 02:30:00;;;;;;;41.97;24.48;;;;;;;;;;4468307;32;20296;-87
2022/11/06 02:32:38;;;;;;;35.73;23.47;;;;;;;;;;4468791;32;20274;-87
2022/11/06 02:35:15;;;;;;;39.75;23.23;;;;;;;;;;4468383;32;20204;-86
2022/11/06 02:37:44;;;;;;;41.78;22.62;;;;;;;;;;4468613;32;20217;-86
2022/11/06 02:40:13;;;;;;;42.10;23.67;;;;;;;;;;4467988;32;20222;-87
2022/11/06 02:42:45;;;;;;;36.60;23.58;;;;;;;;;;4468010;32;20257;-87
2022/11/06 02:45:17;;;;;;;35.73;20.67;;;;;;;;;;4469542;32;20216;-87
2022/11/06 02:47:47;;;;;;;34.25;21.05;;;;;;;;;;4471668;32;20207;-87
2022/11/06 02:50:19;;;;;;;37.00;20.30;;;;;;;;;;4470921;32;20219;-87
2022/11/06 02:52:50;;;;;;;37.20;21.57;;;;;;;;;;4471728;32;20196;-86
2022/11/06 02:55:23;;;;;;;38.93;20.50;;;;;;;;;;4471107;32;20367;-86
2022/11/06 02:57:57;;;;;;;40.03;19.57;;;;;;;;;;4471470;32;20658;-87
2022/11/06 03:00:27;;;;;;;32.87;19.47;;;;;;;;;;4471425;32;20200;-87
2022/11/06 03:03:01;;;;;;;34.35;21.33;;;;;;;;;;4471074;32;20713;-86
2022/11/06 03:05:31;;;;;;;41.17;21.58;;;;;;;;;;4470704;32;20526;-87
2022/11/06 03:08:05;;;;;;;33.35;21.25;;;;;;;;;;4471380;32;20552;-87
2022/11/06 03:10:39;;;;;;;35.53;21.17;;;;;;;;;;4471053;32;20204;-87
2022/11/06 03:13:16;;;;;;;32.43;19.40;;;;;;;;;;4471364;32;20693;-87
2022/11/06 03:15:51;;;;;;;42.45;20.75;;;;;;;;;;4471194;32;20506;-86
2022/11/06 03:18:24;;;;;;;34.60;19.17;;;;;;;;;;4470733;32;20362;-87
2022/11/06 03:20:58;;;;;;;36.10;19.67;;;;;;;;;;4471172;32;20280;-87
2022/11/06 03:23:32;;;;;;;31.30;18.40;;;;;;;;;;4471028;32;20518;-87
2022/11/06 03:26:10;;;;;;;30.20;17.53;;;;;;;;;;4471069;32;20277;-87
2022/11/06 03:28:43;;;;;;;42.22;17.85;;;;;;;;;;4471124;32;20303;-87
2022/11/06 03:31:15;;;;;;;28.70;16.17;;;;;;;;;;4470536;32;20281;-87
2022/11/06 03:33:46;;;;;;;26.87;15.70;;;;;;;;;;4470966;32;20242;-87
2022/11/06 03:36:16;;;;;;;28.00;16.70;;;;;;;;;;4470987;32;20238;-87
2022/11/06 03:38:46;;;;;;;26.55;16.52;;;;;;;;;;4471136;32;20216;-87
2022/11/06 03:41:20;;;;;;;30.80;16.37;;;;;;;;;;4470441;32;20224;-87
2022/11/06 03:43:51;;;;;;;34.97;18.23;;;;;;;;;;4470642;32;20212;-87
2022/11/06 03:46:23;;;;;;;26.17;16.55;;;;;;;;;;4470941;32;20299;-87
2022/11/06 03:48:54;;;;;;;31.40;17.70;;;;;;;;;;4470845;32;20196;-87
2022/11/06 03:51:28;;;;;;;30.23;16.80;;;;;;;;;;4470393;32;20228;-88
2022/11/06 03:54:00;;;;;;;27.17;16.10;;;;;;;;;;4470767;32;20200;-87
2022/11/06 03:56:35;;;;;;;34.63;17.43;;;;;;;;;;4470042;32;20264;-87
2022/11/06 03:59:08;;;;;;;32.22;18.12;;;;;;;;;;4470947;32;20207;-87
2022/11/06 04:01:43;;;;;;;35.28;17.20;;;;;;;;;;4470450;32;20208;-87
2022/11/06 04:04:15;;;;;;;24.70;17.35;;;;;;;;;;4470901;32;20211;-87
2022/11/06 04:06:45;;;;;;;32.03;18.43;;;;;;;;;;4470272;32;20254;-87
2022/11/06 04:14:52;;;;;;;31.47;17.23;;;;;;;;;;4470119;32;20307;-86
2022/11/06 04:17:22;;;;;;;26.53;16.93;;;;;;;;;;4470539;32;20208;-86
2022/11/06 04:19:52;;;;;;;31.10;16.80;;;;;;;;;;4469743;32;20219;-86
2022/11/06 04:22:32;;;;;;;30.97;17.03;;;;;;;;;;4469699;32;20204;-87
2022/11/06 04:28:08;;;;;;;37.53;17.33;;;;;;;;;;4470080;32;20207;-86
2022/11/06 04:30:44;;;;;;;29.30;18.57;;;;;;;;;;4469861;32;20211;-85
2022/11/06 04:33:18;;;;;;;49.43;25.67;;;;;;;;;;4470255;32;20257;-86
2022/11/06 04:35:59;;;;;;;56.00;30.07;;;;;;;;;;4470371;32;20215;-86
2022/11/06 04:38:36;;;;;;;48.17;27.67;;;;;;;;;;4470097;32;20192;-85
2022/11/06 04:41:13;;;;;;;50.97;25.80;;;;;;;;;;4469523;32;20606;-86
2022/11/06 04:43:44;;;;;;;44.87;25.30;;;;;;;;;;4469982;32;20200;-86
2022/11/06 04:46:18;;;;;;;42.27;22.37;;;;;;;;;;4469392;32;20595;-86
2022/11/06 04:48:47;;;;;;;33.20;19.77;;;;;;;;;;4469431;32;20589;-88
2022/11/06 04:51:21;;;;;;;31.37;18.70;;;;;;;;;;4469261;32;20284;-87
2022/11/06 04:53:52;;;;;;;26.67;17.87;;;;;;;;;;4469833;32;20214;-86
2022/11/06 04:56:26;;;;;;;36.47;17.77;;;;;;;;;;4469861;32;20294;-87
2022/11/06 04:58:53;;;;;;;26.30;17.93;;;;;;;;;;4469423;32;20203;-88
2022/11/06 05:01:22;;;;;;;30.73;18.87;;;;;;;;;;4469131;32;20234;-88
2022/11/06 05:03:51;;;;;;;29.00;18.77;;;;;;;;;;4468997;32;20306;-88
2022/11/06 05:06:18;;;;;;;29.43;17.87;;;;;;;;;;4469627;32;20224;-88
2022/11/06 05:08:46;;;;;;;30.00;17.23;;;;;;;;;;4468642;32;20215;-88
2022/11/06 05:11:13;;;;;;;41.85;18.77;;;;;;;;;;4468934;32;20741;-87
2022/11/06 05:13:40;;;;;;;32.45;17.50;;;;;;;;;;4469196;32;20212;-88
2022/11/06 05:16:08;;;;;;;26.70;17.60;;;;;;;;;;4468968;32;20235;-88
2022/11/06 05:18:36;;;;;;;24.43;17.10;;;;;;;;;;4469050;32;20625;-88
2022/11/06 05:23:48;;;;;;;28.83;18.40;;;;;;;;;;4468873;32;20240;-87
2022/11/06 05:26:15;;;;;;;32.87;16.37;;;;;;;;;;4468958;32;20373;-87
2022/11/06 05:28:42;;;;;;;31.73;17.73;;;;;;;;;;4469334;32;20600;-88
2022/11/06 05:31:10;;;;;;;30.77;16.52;;;;;;;;;;4469220;32;20289;-88
2022/11/06 05:33:39;;;;;;;28.03;17.83;;;;;;;;;;4470341;32;20222;-87
2022/11/06 05:36:06;;;;;;;29.37;18.33;;;;;;;;;;4477984;32;20222;-87
2022/11/06 05:38:34;;;;;;;27.60;17.43;;;;;;;;;;4482854;32;20244;-87
2022/11/06 05:41:01;;;;;;;32.70;16.97;;;;;;;;;;4474664;32;20211;-88
2022/11/06 05:43:28;;;;;;;41.23;22.83;;;;;;;;;;4470266;32;20227;-88
2022/11/06 05:45:57;;;;;;;51.93;28.33;;;;;;;;;;4468815;32;20204;-88
2022/11/06 05:48:24;;;;;;;50.47;31.98;;;;;;;;;;4469053;32;20308;-87
2022/11/06 05:50:53;;;;;;;85.70;46.73;;;;;;;;;;4468618;32;20294;-88
2022/11/06 05:53:20;;;;;;;80.67;46.90;;;;;;;;;;4468343;32;20308;-87
2022/11/06 05:55:48;;;;;;;75.23;41.63;;;;;;;;;;4468480;32;20208;-88
2022/11/06 05:58:15;;;;;;;81.90;45.43;;;;;;;;;;4468393;32;20284;-87
2022/11/06 06:00:42;;;;;;;73.33;42.20;;;;;;;;;;4468848;32;20260;-87
2022/11/06 06:03:11;;;;;;;80.63;41.13;;;;;;;;;;4468347;32;20671;-88
2022/11/06 06:05:37;;;;;;;82.33;42.43;;;;;;;;;;4468287;32;20208;-87
2022/11/06 06:08:06;;;;;;;101.72;44.58;;;;;;;;;;4468739;32;20664;-87
2022/11/06 06:10:33;;;;;;;84.68;43.20;;;;;;;;;;4468265;32;20234;-86
2022/11/06 06:13:00;;;;;;;67.70;39.60;;;;;;;;;;4468147;32;20291;-87
2022/11/06 06:15:27;;;;;;;70.97;41.70;;;;;;;;;;4454183;32;20624;-88
2022/11/06 06:17:54;;;;;;;68.50;43.00;;;;;;;;;;4468655;32;20224;-87
2022/11/06 06:20:22;;;;;;;71.60;42.83;;;;;;;;;;4467018;32;20284;-87
2022/11/06 06:22:55;;;;;;;64.20;40.80;;;;;;;;;;4468012;32;20216;-87
2022/11/06 06:25:26;;;;;;;63.20;41.97;;;;;;;;;;4467113;32;20268;-90
2022/11/06 06:27:53;;;;;;;70.43;39.37;;;;;;;;;;4467977;32;20220;-87
2022/11/06 06:30:21;;;;;;;67.77;38.43;;;;;;;;;;4468020;32;20229;-87
2022/11/06 06:32:49;;;;;;;55.50;36.43;;;;;;;;;;4467958;32;20681;-87
2022/11/06 06:35:16;;;;;;;53.37;32.90;;;;;;;;;;4468211;32;20272;-87
2022/11/06 06:37:43;;;;;;;38.07;25.43;;;;;;;;;;4468072;32;20637;-87
2022/11/06 06:40:11;;;;;;;46.30;24.43;;;;;;;;;;4468548;32;20675;-87
2022/11/06 06:42:39;;;;;;;61.50;29.17;;;;;;;;;;4467792;32;20661;-86
2022/11/06 06:45:06;;;;;;;39.47;25.97;;;;;;;;;;4468557;32;20204;-88
2022/11/06 06:47:33;;;;;;;41.80;24.03;;;;;;;;;;4468948;32;20232;-88
2022/11/06 06:50:00;;;;;;;44.53;27.13;;;;;;;;;;4468691;32;20350;-87
2022/11/06 06:52:27;;;;;;;52.47;29.43;;;;;;;;;;4468677;32;20246;-88
2022/11/06 06:54:56;;;;;;;44.80;31.80;;;;;;;;;;4468168;32;20288;-88
2022/11/06 06:57:24;;;;;;;58.10;32.30;;;;;;;;;;4467830;32;20655;-87
2022/11/06 06:59:52;;;;;;;54.77;30.93;;;;;;;;;;4468479;32;20234;-87
2022/11/06 07:02:19;;;;;;;52.97;30.97;;;;;;;;;;4468313;32;20258;-87
2022/11/06 07:04:46;;;;;;;47.70;29.87;;;;;;;;;;4467868;32;20220;-87
2022/11/06 07:07:13;;;;;;;48.87;29.53;;;;;;;;;;4467959;32;20249;-87
2022/11/06 07:09:39;;;;;;;52.10;30.60;;;;;;;;;;4467881;32;20310;-87
2022/11/06 07:12:07;;;;;;;50.50;30.47;;;;;;;;;;4467768;32;20208;-88
2022/11/06 07:14:34;;;;;;;49.27;31.03;;;;;;;;;;4467978;32;20220;-87
2022/11/06 07:17:02;;;;;;;50.47;33.40;;;;;;;;;;4468203;32;20271;-87
2022/11/06 07:19:29;;;;;;;53.30;34.60;;;;;;;;;;4468039;32;20570;-87
2022/11/06 07:21:55;;;;;;;59.50;36.53;;;;;;;;;;4467723;32;20208;-87
2022/11/06 07:24:22;;;;;;;59.83;36.93;;;;;;;;;;4467733;32;20240;-88
2022/11/06 07:26:52;;;;;;;59.37;34.80;;;;;;;;;;4467623;32;20238;-87
2022/11/06 07:29:18;;;;;;;54.13;36.40;;;;;;;;;;4467992;32;20216;-88
2022/11/06 07:31:45;;;;;;;53.43;32.93;;;;;;;;;;4470197;32;20251;-88
2022/11/06 07:34:14;;;;;;;49.60;33.23;;;;;;;;;;4470862;32;20220;-89
2022/11/06 07:36:41;;;;;;;51.47;34.37;;;;;;;;;;4470755;32;20260;-87
2022/11/06 07:39:08;;;;;;;56.07;32.80;;;;;;;;;;4470231;32;20258;-87
2022/11/06 07:41:35;;;;;;;51.80;33.97;;;;;;;;;;4470646;32;20212;-87
2022/11/06 07:44:04;;;;;;;41.60;29.90;;;;;;;;;;4470766;32;20572;-87
2022/11/06 07:46:31;;;;;;;49.65;30.08;;;;;;;;;;4470518;32;20306;-87
2022/11/06 07:48:59;;;;;;;48.17;31.57;;;;;;;;;;4470358;32;20220;-87
2022/11/06 07:51:31;;;;;;;57.50;33.20;;;;;;;;;;4470565;32;20234;-86
2022/11/06 07:53:58;;;;;;;44.47;31.43;;;;;;;;;;4470354;32;20217;-87
2022/11/06 07:56:25;;;;;;;51.60;33.27;;;;;;;;;;4470113;32;20196;-90
2022/11/06 07:58:55;;;;;;;50.10;31.30;;;;;;;;;;4470314;32;20247;-87
2022/11/06 08:01:27;;;;;;;215.07;90.97;;;;;;;;;;4470660;32;20204;-87
2022/11/06 08:03:54;;;;;;;254.47;107.13;;;;;;;;;;4470530;32;20697;-87
2022/11/06 08:06:21;;;;;;;131.13;68.83;;;;;;;;;;4470110;32;20275;-87
2022/11/06 08:08:49;;;;;;;73.67;40.93;;;;;;;;;;4470026;32;20215;-87
2022/11/06 08:11:16;;;;;;;65.43;36.93;;;;;;;;;;4470717;32;20212;-87
2022/11/06 08:13:47;;;;;;;55.50;34.33;;;;;;;;;;4469394;32;20296;-87
2022/11/06 08:16:15;;;;;;;123.37;54.00;;;;;;;;;;4478868;32;20208;-87
2022/11/06 08:18:43;;;;;;;204.83;78.43;;;;;;;;;;4483364;32;20229;-86
2022/11/06 08:21:10;;;;;;;153.07;63.03;;;;;;;;;;4486495;32;20307;-86
2022/11/06 08:23:37;;;;;;;83.47;45.20;;;;;;;;;;4486427;32;20259;-87
2022/11/06 08:26:07;;;;;;;72.00;38.90;;;;;;;;;;4483440;32;20283;-88
2022/11/06 08:28:34;;;;;;;41.80;28.13;;;;;;;;;;4473262;32;20215;-87
2022/11/06 08:31:04;;;;;;;41.73;28.33;;;;;;;;;;4472676;32;20200;-87
2022/11/06 08:33:41;;;;;;;45.27;31.00;;;;;;;;;;4470863;32;20255;-87
2022/11/06 08:36:09;;;;;;;56.87;32.10;;;;;;;;;;4470422;32;20637;-87
2022/11/06 08:38:38;;;;;;;50.33;32.43;;;;;;;;;;4469741;32;20215;-87
2022/11/06 08:41:07;;;;;;;51.70;30.90;;;;;;;;;;4469567;32;20637;-87
2022/11/06 08:43:34;;;;;;;47.57;30.23;;;;;;;;;;4469260;32;20228;-87
2022/11/06 08:46:04;;;;;;;54.20;33.27;;;;;;;;;;4470023;32;20624;-88
2022/11/06 08:48:35;;;;;;;47.90;33.70;;;;;;;;;;4469407;32;20228;-87
2022/11/06 08:51:03;;;;;;;75.50;45.53;;;;;;;;;;4469341;32;20568;-89
2022/11/06 08:53:30;;;;;;;69.20;42.10;;;;;;;;;;4469238;32;20216;-87
2022/11/06 08:55:57;;;;;;;66.57;42.77;;;;;;;;;;4468660;32;20279;-87
2022/11/06 08:58:25;;;;;;;63.20;40.27;;;;;;;;;;4469670;32;20241;-87
2022/11/06 09:00:52;;;;;;;65.73;40.00;;;;;;;;;;4469482;32;20218;-87
2022/11/06 09:03:19;;;;;;;79.30;41.87;;;;;;;;;;4469250;32;20213;-89
2022/11/06 09:05:47;;;;;;;67.90;44.10;;;;;;;;;;4469195;32;20248;-87
2022/11/06 09:08:16;;;;;;;60.00;41.67;;;;;;;;;;4468866;32;20216;-87
2022/11/06 09:10:46;;;;;;;67.73;41.80;;;;;;;;;;4469098;32;20231;-87
2022/11/06 09:13:16;;;;;;;66.20;41.23;;;;;;;;;;4468332;32;20510;-88
2022/11/06 09:15:45;;;;;;;55.27;39.17;;;;;;;;;;4468964;32;20208;-87
2022/11/06 09:18:12;;;;;;;58.30;39.17;;;;;;;;;;4468767;32;20223;-87
2022/11/06 09:20:39;;;;;;;66.67;37.73;;;;;;;;;;4468433;32;20312;-87
2022/11/06 09:23:07;;;;;;;61.50;37.78;;;;;;;;;;4468869;32;20214;-87
2022/11/06 09:25:34;;;;;;;55.93;36.30;;;;;;;;;;4468807;32;20260;-87
2022/11/06 09:28:01;;;;;;;53.00;37.33;;;;;;;;;;4468680;32;20236;-87
2022/11/06 09:30:36;;;;;;;56.00;40.10;;;;;;;;;;4469464;32;20219;-88
2022/11/06 09:33:05;;;;;;;57.70;39.00;;;;;;;;;;4468814;32;20594;-87
2022/11/06 09:35:36;;;;;;;58.93;42.57;;;;;;;;;;4468770;32;20220;-87
2022/11/06 09:38:04;;;;;;;55.27;42.07;;;;;;;;;;4469219;32;20230;-87
2022/11/06 09:40:34;;;;;;;64.57;46.72;;;;;;;;;;4469203;32;20220;-88
2022/11/06 09:43:08;;;;;;;161.68;100.95;;;;;;;;;;4468616;32;20263;-88
2022/11/06 09:45:39;;;;;;;128.00;86.50;;;;;;;;;;4469204;32;20249;-88
2022/11/06 09:48:19;;;;;;;138.33;91.83;;;;;;;;;;4468826;32;20295;-88
2022/11/06 09:50:52;;;;;;;132.37;80.20;;;;;;;;;;4468583;32;20292;-88
2022/11/06 09:53:27;;;;;;;62.27;43.53;;;;;;;;;;4468651;32;20196;-88
2022/11/06 09:55:55;;;;;;;59.93;38.37;;;;;;;;;;4468044;32;20220;-87
2022/11/06 09:58:26;;;;;;;68.30;40.43;;;;;;;;;;4468358;32;20598;-88
2022/11/06 10:00:55;;;;;;;60.53;45.03;;;;;;;;;;4468757;32;20217;-87
2022/11/06 10:03:36;;;;;;;62.67;43.03;;;;;;;;;;4468425;32;20225;-88
2022/11/06 10:06:03;;;;;;;65.03;45.70;;;;;;;;;;4476149;32;20212;-87
2022/11/06 10:08:30;;;;;;;67.10;42.67;;;;;;;;;;4482477;32;20263;-89
2022/11/06 10:11:03;;;;;;;71.97;46.47;;;;;;;;;;4479511;32;20310;-90
2022/11/06 10:13:54;;;;;;;74.47;49.77;;;;;;;;;;4469957;32;20200;-89
2022/11/06 10:16:34;;;;;;;90.53;55.35;;;;;;;;;;4469648;32;20717;-90
2022/11/06 10:19:10;;;;;;;99.60;63.50;;;;;;;;;;4469144;32;20628;-88
2022/11/06 10:21:49;;;;;;;115.60;67.20;;;;;;;;;;4468643;32;20252;-88
2022/11/06 10:24:23;;;;;;;73.70;47.63;;;;;;;;;;4468843;32;20528;-88
2022/11/06 10:26:53;;;;;;;53.17;36.97;;;;;;;;;;4468620;32;20196;-86
2022/11/06 10:29:59;;;;;;;56.03;39.73;;;;;;;;;;4468038;32;20350;-86
2022/11/06 10:32:58;;;;;;;67.57;45.22;;;;;;;;;;4468051;32;20208;-87
2022/11/06 10:35:31;;;;;;;70.80;55.23;;;;;;;;;;4468054;32;20744;-88
2022/11/06 10:38:04;;;;;;;83.27;51.77;;;;;;;;;;4468298;32;20208;-87
2022/11/06 10:40:33;;;;;;;69.30;49.90;;;;;;;;;;4468355;32;20311;-87
2022/11/06 10:43:14;;;;;;;66.82;47.08;;;;;;;;;;4467897;32;20283;-88
2022/11/06 10:45:45;;;;;;;62.13;44.03;;;;;;;;;;4468477;32;20678;-89
2022/11/06 10:48:22;;;;;;;60.53;43.53;;;;;;;;;;4468046;32;20606;-90
2022/11/06 10:51:02;;;;;;;51.90;37.40;;;;;;;;;;4468207;32;20576;-88
2022/11/06 10:53:42;;;;;;;44.57;28.50;;;;;;;;;;4468373;32;20601;-87
2022/11/06 10:56:33;;;;;;;35.53;23.77;;;;;;;;;;4468638;32;20240;-87
2022/11/06 10:59:00;;;;;;;40.25;24.67;;;;;;;;;;4468124;32;20725;-87
2022/11/06 11:01:30;;;;;;;31.43;21.37;;;;;;;;;;4467934;32;20712;-87
2022/11/06 11:03:57;;;;;;;30.97;21.23;;;;;;;;;;4468445;32;20216;-89
2022/11/06 11:06:25;;;;;;;44.90;25.33;;;;;;;;;;4468496;32;20263;-87
2022/11/06 11:08:52;;;;;;;42.97;25.73;;;;;;;;;;4470758;32;20252;-87
2022/11/06 11:11:23;;;;;;;38.30;25.23;;;;;;;;;;4471312;32;20608;-87
2022/11/06 11:14:12;;;;;;;29.73;23.57;;;;;;;;;;4470931;32;20212;-87
2022/11/06 11:16:44;;;;;;;38.33;22.43;;;;;;;;;;4470707;32;20594;-87
2022/11/06 11:19:24;;;;;;;32.63;23.47;;;;;;;;;;4470732;32;20226;-87
2022/11/06 11:21:57;;;;;;;38.65;23.25;;;;;;;;;;4471201;32;20323;-87
2022/11/06 11:24:24;;;;;;;37.15;21.85;;;;;;;;;;4470715;32;20216;-87
2022/11/06 11:26:54;;;;;;;26.73;20.23;;;;;;;;;;4471190;32;20703;-87
2022/11/06 11:29:25;;;;;;;34.58;20.60;;;;;;;;;;4470397;32;20303;-87
2022/11/06 11:31:55;;;;;;;28.13;18.50;;;;;;;;;;4470753;32;20195;-88
2022/11/06 11:34:25;;;;;;;33.47;20.00;;;;;;;;;;4470526;32;20640;-87
2022/11/06 11:36:58;;;;;;;35.00;18.93;;;;;;;;;;4471080;32;20208;-87
2022/11/06 11:39:29;;;;;;;33.28;19.67;;;;;;;;;;4470398;32;20216;-86
2022/11/06 11:42:25;;;;;;;26.80;18.20;;;;;;;;;;4470372;32;20200;-88
2022/11/06 11:45:18;;;;;;;27.90;17.40;;;;;;;;;;4470783;32;20256;-88
2022/11/06 11:47:47;;;;;;;39.50;15.77;;;;;;;;;;4470538;32;20288;-88
2022/11/06 11:50:19;;;;;;;28.67;16.57;;;;;;;;;;4470109;32;20222;-88
2022/11/06 11:52:50;;;;;;;24.57;15.43;;;;;;;;;;4470266;32;20245;-88
2022/11/06 11:55:20;;;;;;;22.63;16.00;;;;;;;;;;4470977;32;20236;-87
2022/11/06 11:57:58;;;;;;;31.67;16.10;;;;;;;;;;4470182;32;20215;-87
2022/11/06 12:00:32;;;;;;;27.30;17.80;;;;;;;;;;4470628;32;20219;-87
2022/11/06 12:03:02;;;;;;;29.27;18.03;;;;;;;;;;4470261;32;20236;-86
2022/11/06 12:05:33;;;;;;;24.43;18.00;;;;;;;;;;4469511;32;20219;-86
2022/11/06 12:08:02;;;;;;;28.93;19.87;;;;;;;;;;4469193;32;20227;-86
2022/11/06 12:10:39;;;;;;;38.10;20.33;;;;;;;;;;4470143;32;20208;-87
2022/11/06 12:13:20;;;;;;;32.73;22.33;;;;;;;;;;4470426;32;20226;-86
2022/11/06 12:15:51;;;;;;;31.30;21.63;;;;;;;;;;4470577;32;20196;-86
2022/11/06 12:18:21;;;;;;;26.67;20.80;;;;;;;;;;4469270;32;20264;-88
2022/11/06 12:20:54;;;;;;;35.93;20.57;;;;;;;;;;4469870;32;20227;-86
2022/11/06 12:23:43;;;;;;;38.07;22.03;;;;;;;;;;4470058;32;20299;-87
2022/11/06 12:26:20;;;;;;;31.67;20.97;;;;;;;;;;4470930;32;20601;-88
2022/11/06 12:28:54;;;;;;;29.20;20.63;;;;;;;;;;4470602;32;20238;-86
2022/11/06 12:31:31;;;;;;;27.67;20.13;;;;;;;;;;4470469;32;20207;-86
2022/11/06 12:34:01;;;;;;;31.80;21.10;;;;;;;;;;4469904;32;20664;-86
2022/11/06 12:36:35;;;;;;;35.97;22.83;;;;;;;;;;4470102;32;20204;-86
2022/11/06 12:39:12;;;;;;;55.97;39.47;;;;;;;;;;4469758;32;20232;-86
2022/11/06 12:41:42;;;;;;;71.43;45.13;;;;;;;;;;4470173;32;20224;-87
2022/11/06 12:44:11;;;;;;;70.53;42.80;;;;;;;;;;4469274;32;20607;-86
2022/11/06 12:46:45;;;;;;;52.67;39.60;;;;;;;;;;4469846;32;20204;-86
2022/11/06 12:49:47;;;;;;;55.22;38.40;;;;;;;;;;4469276;32;20343;-86
2022/11/06 12:52:28;;;;;;;58.73;34.57;;;;;;;;;;4459351;32;20239;-87
2022/11/06 12:55:10;;;;;;;51.50;36.03;;;;;;;;;;4469724;32;20222;-88
2022/11/06 12:57:45;;;;;;;51.13;32.40;;;;;;;;;;4469517;32;20212;-86
2022/11/06 13:00:18;;;;;;;44.67;31.23;;;;;;;;;;4469531;32;20256;-86
2022/11/06 13:03:12;;;;;;;45.93;31.93;;;;;;;;;;4469493;32;20212;-86
2022/11/06 13:05:48;;;;;;;41.30;32.00;;;;;;;;;;4469238;32;20601;-86
2022/11/06 13:08:27;;;;;;;39.83;30.23;;;;;;;;;;4468100;32;20304;-86
2022/11/06 13:11:09;;;;;;;32.53;24.60;;;;;;;;;;4469750;32;20200;-86
2022/11/06 13:13:44;;;;;;;39.53;27.53;;;;;;;;;;4469076;32;20233;-86
2022/11/06 13:16:20;;;;;;;38.28;29.80;;;;;;;;;;4469719;32;20290;-86
2022/11/06 13:18:53;;;;;;;36.00;27.67;;;;;;;;;;4469144;32;20220;-86
2022/11/06 13:21:29;;;;;;;36.30;27.03;;;;;;;;;;4469526;32;20204;-86
2022/11/06 13:24:01;;;;;;;41.10;25.90;;;;;;;;;;4469370;32;20200;-86
2022/11/06 13:26:37;;;;;;;28.10;23.03;;;;;;;;;;4468918;32;20248;-86
2022/11/06 13:29:06;;;;;;;32.08;18.73;;;;;;;;;;4469072;32;20204;-86
2022/11/06 13:31:38;;;;;;;26.35;19.00;;;;;;;;;;4468644;32;20308;-86
2022/11/06 13:34:07;;;;;;;29.63;18.13;;;;;;;;;;4469099;32;20204;-86
2022/11/06 13:36:37;;;;;;;27.63;18.60;;;;;;;;;;4469215;32;20207;-88
2022/11/06 13:39:14;;;;;;;35.77;23.33;;;;;;;;;;4469475;32;20271;-86
2022/11/06 13:41:45;;;;;;;35.60;23.30;;;;;;;;;;4469359;32;20246;-86
2022/11/06 13:44:16;;;;;;;54.42;28.05;;;;;;;;;;4469025;32;20271;-86
2022/11/06 13:46:54;;;;;;;55.43;29.20;;;;;;;;;;4468945;32;20203;-86
2022/11/06 13:49:34;;;;;;;54.63;38.60;;;;;;;;;;4468811;32;20250;-87
2022/11/06 13:52:04;;;;;;;73.00;47.22;;;;;;;;;;4468428;32;20688;-86
2022/11/06 13:54:44;;;;;;;71.83;48.40;;;;;;;;;;4468843;32;20280;-87
2022/11/06 13:57:47;;;;;;;104.30;59.92;;;;;;;;;;4468835;32;20233;-86
2022/11/06 14:00:23;;;;;;;77.70;47.47;;;;;;;;;;4468928;32;20215;-87
2022/11/06 14:03:24;;;;;;;74.10;44.97;;;;;;;;;;4468683;32;20220;-86
2022/11/06 14:05:57;;;;;;;45.80;30.62;;;;;;;;;;4467845;32;20219;-86
2022/11/06 14:08:28;;;;;;;42.10;27.10;;;;;;;;;;4468343;32;20656;-86
2022/11/06 14:11:01;;;;;;;31.63;22.60;;;;;;;;;;4468691;32;20204;-86
2022/11/06 14:13:32;;;;;;;22.62;16.90;;;;;;;;;;4468092;32;20677;-86
2022/11/06 14:16:06;;;;;;;31.50;19.85;;;;;;;;;;4467270;32;20208;-86
2022/11/06 14:18:36;;;;;;;26.23;17.90;;;;;;;;;;4468352;32;20207;-87
2022/11/06 14:21:51;;;;;;;28.92;17.52;;;;;;;;;;4468876;32;20196;-87
2022/11/06 14:24:39;;;;;;;39.33;27.33;;;;;;;;;;4468643;32;20275;-87
2022/11/06 14:27:12;;;;;;;33.35;24.87;;;;;;;;;;4468717;32;20209;-87
2022/11/06 14:29:59;;;;;;;44.63;30.12;;;;;;;;;;4468078;32;20208;-87
2022/11/06 14:32:47;;;;;;;64.80;44.43;;;;;;;;;;4468322;32;20238;-87
2022/11/06 14:35:48;;;;;;;77.30;51.93;;;;;;;;;;4468552;32;20622;-87
2022/11/06 14:38:19;;;;;;;75.43;51.83;;;;;;;;;;4468186;32;20219;-87
2022/11/06 14:40:54;;;;;;;69.10;49.38;;;;;;;;;;4469508;32;20200;-87
2022/11/06 14:43:25;;;;;;;63.05;46.70;;;;;;;;;;4471376;32;20294;-87
2022/11/06 14:46:02;;;;;;;63.58;40.55;;;;;;;;;;4472619;32;20255;-87
2022/11/06 14:48:33;;;;;;;53.03;39.53;;;;;;;;;;4471931;32;20263;-87
2022/11/06 14:51:04;;;;;;;51.23;36.13;;;;;;;;;;4472639;32;20219;-87
2022/11/06 14:53:39;;;;;;;55.47;39.25;;;;;;;;;;4475215;32;20212;-88
2022/11/06 14:56:09;;;;;;;63.73;43.63;;;;;;;;;;4475497;32;20621;-87